Kobe Express — JG5504 — position and weather

sailwx.info

Track history (hours):
 
Tides and Currents Weather Stations Pressure Air Temp Water Temp Dewpoint Dewpoint Depression Visibility Wind Speed Wind Dir Waves Ship Positions

Kobe Express

Last reported at 2018-Jun-19 04:06 UTC. Time now 2018-Jun-20 07:54 UTC.
Position N 33°57' E 135°05'.

Length 170 m; draft 6.5 m.

Type: Passenger vessel. MMSI: 431301684.

Date/timePositionNaut miles runAvg speedWind from/ knotsBaromVisibWave heightAir tempDewpointWater temp
2018-Jun-19 04:06N 33°57' E 135°05'0 4.5
2018-Jun-19 04:00N 33°57' E 135°05'3 5.3
2018-Jun-19 03:30N 33°59' E 135°03'1019.9
2018-Jun-19 03:00N 34°09' E 135°01'1020.4
2018-Jun-19 02:30N 34°18' E 134°58'1020.7
2018-Jun-19 02:00N 34°28' E 135°02'1020.7
2018-Jun-19 01:30N 34°36' E 135°10'5 9.5
2018-Jun-19 01:00N 34°41' E 135°12'0 0.0
2018-Jun-19 00:30N 34°41' E 135°12'0 0.0
2018-Jun-19 00:01N 34°41' E 135°12'0 0.0
2018-Jun-18 23:31N 34°41' E 135°12'0 0.0
2018-Jun-18 23:01N 34°41' E 135°12'1 2.0
2018-Jun-18 22:30N 34°40' E 135°12'917.5
2018-Jun-18 22:00N 34°32' E 135°09'1019.1
2018-Jun-18 21:30N 34°24' E 135°02'1121.7
2018-Jun-18 21:00N 34°14' E 134°59'1123.0
2018-Jun-18 20:31N 34°02' E 134°56'1122.6
2018-Jun-18 20:01N 33°51' E 134°52'47 1.5
2018-Jun-17 12:27N 34°25' E 134°12'816.6
2018-Jun-17 11:59N 34°25' E 134°21'715.7
2018-Jun-17 11:30N 34°28' E 134°29'815.7
2018-Jun-17 11:00N 34°31' E 134°38'816.1
2018-Jun-17 10:30N 34°33' E 134°48'816.8
2018-Jun-17 10:00N 34°37' E 134°57'918.2
2018-Jun-17 09:30N 34°37' E 135°08'510.9
2018-Jun-17 09:00N 34°41' E 135°12'0 0.1
2018-Jun-17 08:30N 34°41' E 135°12'0 0.0
2018-Jun-17 08:00N 34°41' E 135°12'0 0.0
2018-Jun-17 07:30N 34°41' E 135°12'0 0.0
2018-Jun-17 06:59N 34°41' E 135°12'0 0.0
2018-Jun-17 06:30N 34°41' E 135°12'0 0.0
2018-Jun-17 06:01N 34°41' E 135°12'0 0.0
2018-Jun-17 05:30N 34°41' E 135°12'0 0.0
2018-Jun-17 05:00N 34°41' E 135°12'0 0.0
2018-Jun-17 04:30N 34°41' E 135°12'0 0.0
2018-Jun-17 04:00N 34°41' E 135°12'0 0.0
2018-Jun-17 03:30N 34°41' E 135°12'0 0.0
2018-Jun-17 03:00N 34°41' E 135°12'0 0.0
2018-Jun-17 02:30N 34°41' E 135°12'0 0.0
2018-Jun-17 02:00N 34°41' E 135°12'0 0.0
2018-Jun-17 01:31N 34°41' E 135°12'0 0.0
2018-Jun-17 00:59N 34°41' E 135°12'0 0.0
2018-Jun-17 00:30N 34°41' E 135°12'0 0.0
2018-Jun-17 00:01N 34°41' E 135°12'0 0.0
2018-Jun-16 23:30N 34°41' E 135°12'0 0.0
2018-Jun-16 23:00N 34°41' E 135°12'1 1.6
2018-Jun-16 22:30N 34°40' E 135°12'917.9
2018-Jun-16 22:00N 34°31' E 135°10'1121.6
2018-Jun-16 21:30N 34°22' E 135°02'1021.0
2018-Jun-16 21:00N 34°13' E 134°58'1122.3
2018-Jun-16 20:30N 34°01' E 134°58'1122.1
2018-Jun-16 20:00N 33°51' E 134°54'1522.3
2018-Jun-16 19:21N 33°39' E 134°44'1 0.0
2018-Jun-15 13:43N 33°39' E 134°43'1020.3
2018-Jun-15 13:12N 33°47' E 134°51'519.7
2018-Jun-15 12:58N 33°51' E 134°53'1020.7
2018-Jun-15 12:31N 34°01' E 134°54'1020.8
2018-Jun-15 12:00N 34°11' E 134°56'1019.1
2018-Jun-15 11:31N 34°20' E 134°59'1020.9
2018-Jun-15 11:01N 34°29' E 135°06'1020.3
2018-Jun-15 10:31N 34°38' E 135°11'3 6.0
2018-Jun-15 10:00N 34°41' E 135°12'0 0.0
2018-Jun-15 09:30N 34°41' E 135°12'0 0.0
2018-Jun-15 09:00N 34°41' E 135°12'0 0.0
2018-Jun-15 08:30N 34°41' E 135°12'0 0.0
2018-Jun-15 07:59N 34°41' E 135°12'0 0.0
2018-Jun-15 07:30N 34°41' E 135°12'0 0.0
2018-Jun-15 07:00N 34°41' E 135°12'0 0.0
2018-Jun-15 06:30N 34°41' E 135°12'0 0.0
2018-Jun-15 06:00N 34°41' E 135°12'0 0.0
2018-Jun-15 05:30N 34°41' E 135°12'0 0.0
2018-Jun-15 04:58N 34°41' E 135°12'0 0.0
2018-Jun-15 04:29N 34°41' E 135°12'0 0.0
2018-Jun-15 04:00N 34°41' E 135°12'0 0.0
2018-Jun-15 03:30N 34°41' E 135°12'0 0.0
2018-Jun-15 03:00N 34°41' E 135°12'0 0.0
2018-Jun-15 02:30N 34°41' E 135°12'0 0.0
2018-Jun-15 02:00N 34°41' E 135°12'0 0.0
2018-Jun-15 01:30N 34°41' E 135°12'0 0.0
2018-Jun-15 01:00N 34°41' E 135°12'0 0.0
2018-Jun-15 00:30N 34°41' E 135°12'0 0.0
2018-Jun-15 00:00N 34°41' E 135°12'0 0.0
2018-Jun-14 23:30N 34°41' E 135°12'0 0.0
2018-Jun-14 23:00N 34°41' E 135°12'0 0.1
2018-Jun-14 22:30N 34°41' E 135°12'511.0
2018-Jun-14 22:01N 34°35' E 135°13'1121.5
2018-Jun-14 21:30N 34°27' E 135°06'1122.0
2018-Jun-14 21:00N 34°17' E 134°59'1122.0
2018-Jun-14 20:30N 34°06' E 134°58'1122.5
2018-Jun-14 20:00N 33°55' E 134°55'1721.8
2018-Jun-14 19:13N 33°40' E 134°45'3 0.1
2018-Jun-13 13:46N 33°38' E 134°42'1321.0
2018-Jun-13 13:10N 33°48' E 134°51'420.8
2018-Jun-13 12:59N 33°52' E 134°52'1021.0
2018-Jun-13 12:31N 34°02' E 134°54'1121.1
2018-Jun-13 12:00N 34°12' E 134°57'816.3
2018-Jun-13 11:31N 34°20' E 134°59'918.7
2018-Jun-13 11:00N 34°29' E 135°03'1020.7
2018-Jun-13 10:30N 34°38' E 135°10'4 7.3
2018-Jun-13 10:00N 34°41' E 135°12'0 0.0
2018-Jun-13 09:30N 34°41' E 135°12'0 0.0
2018-Jun-13 09:00N 34°41' E 135°12'0 0.0
2018-Jun-13 08:30N 34°41' E 135°12'0 0.0
2018-Jun-13 08:00N 34°41' E 135°12'0 0.0
2018-Jun-13 07:30N 34°41' E 135°12'0 0.0
2018-Jun-13 07:00N 34°41' E 135°12'0 0.0
2018-Jun-13 06:30N 34°41' E 135°12'0 0.0
2018-Jun-13 06:00N 34°41' E 135°12'0 0.0
2018-Jun-13 05:30N 34°41' E 135°12'0 0.0
2018-Jun-13 05:00N 34°41' E 135°12'0 0.0
2018-Jun-13 04:30N 34°41' E 135°12'0 0.0
2018-Jun-13 04:00N 34°41' E 135°12'0 0.0
2018-Jun-13 03:30N 34°41' E 135°12'0 0.0
2018-Jun-13 03:00N 34°41' E 135°12'0 0.0
2018-Jun-13 02:30N 34°41' E 135°12'0 0.0
2018-Jun-13 02:00N 34°41' E 135°12'0 0.0
2018-Jun-13 01:30N 34°41' E 135°12'0 0.0
2018-Jun-13 01:00N 34°41' E 135°12'0 0.0
2018-Jun-13 00:30N 34°41' E 135°12'0 0.0
2018-Jun-13 00:00N 34°41' E 135°12'0 0.0
2018-Jun-12 23:30N 34°41' E 135°12'0 0.0
2018-Jun-12 23:00N 34°41' E 135°12'0 0.0
2018-Jun-12 22:30N 34°41' E 135°12'3 6.9
2018-Jun-12 22:00N 34°38' E 135°11'1121.6
2018-Jun-12 21:30N 34°28' E 135°06'1122.9
2018-Jun-12 21:01N 34°18' E 134°60'1122.1
2018-Jun-12 20:31N 34°07' E 134°58'1122.3
2018-Jun-12 20:00N 33°56' E 134°55'1121.9
2018-Jun-12 19:29N 33°45' E 134°50'8 0.3
2018-Jun-11 13:34N 33°40' E 134°43'120.9
2018-Jun-11 13:30N 33°40' E 134°44'1020.6
2018-Jun-11 13:00N 33°49' E 134°52'1020.5
2018-Jun-11 12:30N 33°58' E 134°56'1019.7
2018-Jun-11 12:00N 34°08' E 134°57'1121.0
2018-Jun-11 11:30N 34°18' E 134°58'1121.2
2018-Jun-11 11:00N 34°28' E 135°03'1121.5
2018-Jun-11 10:30N 34°37' E 135°10'4 8.4
2018-Jun-11 10:00N 34°41' E 135°12'0 0.0
2018-Jun-11 09:30N 34°41' E 135°12'0 0.0
2018-Jun-11 08:59N 34°41' E 135°12'0 0.0
2018-Jun-11 08:30N 34°41' E 135°12'0 0.0
2018-Jun-11 08:00N 34°41' E 135°12'0 0.0
2018-Jun-11 07:30N 34°41' E 135°12'0 0.0
2018-Jun-11 07:00N 34°41' E 135°12'0 0.0
2018-Jun-11 06:30N 34°41' E 135°12'0 0.0
2018-Jun-11 06:00N 34°41' E 135°12'0 0.0
2018-Jun-11 05:29N 34°41' E 135°12'0 0.0
2018-Jun-11 05:00N 34°41' E 135°12'0 0.0
2018-Jun-11 04:30N 34°41' E 135°12'0 0.0
2018-Jun-11 04:00N 34°41' E 135°12'0 0.0
2018-Jun-11 03:30N 34°41' E 135°12'0 0.0
2018-Jun-11 03:00N 34°41' E 135°12'0 0.0
2018-Jun-11 02:30N 34°41' E 135°12'0 0.0
2018-Jun-11 02:00N 34°41' E 135°12'0 0.0
2018-Jun-11 01:30N 34°41' E 135°12'0 0.0
2018-Jun-11 01:00N 34°41' E 135°12'0 0.0
2018-Jun-11 00:30N 34°41' E 135°12'0 0.0
2018-Jun-11 00:00N 34°41' E 135°12'0 0.0
2018-Jun-10 23:30N 34°41' E 135°12'0 0.0
2018-Jun-10 23:00N 34°41' E 135°12'2 3.0
2018-Jun-10 22:30N 34°39' E 135°11'918.8
2018-Jun-10 22:00N 34°30' E 135°10'1020.8
2018-Jun-10 21:31N 34°22' E 135°02'1223.0
2018-Jun-10 21:01N 34°11' E 134°58'1122.9
2018-Jun-10 20:31N 34°00' E 134°56'1222.7
2018-Jun-10 19:59N 33°49' E 134°52'1122.2
2018-Jun-10 19:28N 33°39' E 134°44'2 0.1
2018-Jun-09 13:30N 33°38' E 134°42'1120.6
2018-Jun-09 12:58N 33°47' E 134°50'920.5
2018-Jun-09 12:30N 33°57' E 134°52'1121.4
2018-Jun-09 12:00N 34°07' E 134°56'1121.6
2018-Jun-09 11:31N 34°17' E 134°58'1122.1
2018-Jun-09 11:00N 34°28' E 135°03'1121.6
2018-Jun-09 10:30N 34°37' E 135°10'4 8.3
2018-Jun-09 10:00N 34°41' E 135°12'0 0.0
2018-Jun-09 09:30N 34°41' E 135°12'0 0.0
2018-Jun-09 09:00N 34°41' E 135°12'0 0.0
2018-Jun-09 08:30N 34°41' E 135°12'0 0.0
2018-Jun-09 08:00N 34°41' E 135°12'0 0.0
2018-Jun-09 07:30N 34°41' E 135°12'0 0.0
2018-Jun-09 07:00N 34°41' E 135°12'0 0.0
2018-Jun-09 06:30N 34°41' E 135°12'0 0.0
2018-Jun-09 06:00N 34°41' E 135°12'0 0.0
2018-Jun-09 05:30N 34°41' E 135°12'0 0.0
2018-Jun-09 05:00N 34°41' E 135°12'0 0.0
2018-Jun-09 04:30N 34°41' E 135°12'  
Track history (hours):
 
Tides and Currents Weather Stations Pressure Air Temp Water Temp Dewpoint Dewpoint Depression Visibility Wind Speed Wind Dir Waves Ship Positions

Kobe Express

Last reported at 2018-Jun-19 04:06 UTC. Time now 2018-Jun-20 07:54 UTC.
Position N 33°57' E 135°05'.

Length 170 m; draft 6.5 m.

Type: Passenger vessel. MMSI: 431301684.

Date/timePositionNaut miles runAvg speedWind from/ knotsBaromVisibWave heightAir tempDewpointWater temp
2018-Jun-19 04:06N 33°57' E 135°05'0 4.5
2018-Jun-19 04:00N 33°57' E 135°05'3 5.3
2018-Jun-19 03:30N 33°59' E 135°03'1019.9
2018-Jun-19 03:00N 34°09' E 135°01'1020.4
2018-Jun-19 02:30N 34°18' E 134°58'1020.7
2018-Jun-19 02:00N 34°28' E 135°02'1020.7
2018-Jun-19 01:30N 34°36' E 135°10'5 9.5
2018-Jun-19 01:00N 34°41' E 135°12'0 0.0
2018-Jun-19 00:30N 34°41' E 135°12'0 0.0
2018-Jun-19 00:01N 34°41' E 135°12'0 0.0
2018-Jun-18 23:31N 34°41' E 135°12'0 0.0
2018-Jun-18 23:01N 34°41' E 135°12'1 2.0
2018-Jun-18 22:30N 34°40' E 135°12'917.5
2018-Jun-18 22:00N 34°32' E 135°09'1019.1
2018-Jun-18 21:30N 34°24' E 135°02'1121.7
2018-Jun-18 21:00N 34°14' E 134°59'1123.0
2018-Jun-18 20:31N 34°02' E 134°56'1122.6
2018-Jun-18 20:01N 33°51' E 134°52'47 1.5
2018-Jun-17 12:27N 34°25' E 134°12'816.6
2018-Jun-17 11:59N 34°25' E 134°21'715.7
2018-Jun-17 11:30N 34°28' E 134°29'815.7
2018-Jun-17 11:00N 34°31' E 134°38'816.1
2018-Jun-17 10:30N 34°33' E 134°48'816.8
2018-Jun-17 10:00N 34°37' E 134°57'918.2
2018-Jun-17 09:30N 34°37' E 135°08'510.9
2018-Jun-17 09:00N 34°41' E 135°12'0 0.1
2018-Jun-17 08:30N 34°41' E 135°12'0 0.0
2018-Jun-17 08:00N 34°41' E 135°12'0 0.0
2018-Jun-17 07:30N 34°41' E 135°12'0 0.0
2018-Jun-17 06:59N 34°41' E 135°12'0 0.0
2018-Jun-17 06:30N 34°41' E 135°12'0 0.0
2018-Jun-17 06:01N 34°41' E 135°12'0 0.0
2018-Jun-17 05:30N 34°41' E 135°12'0 0.0
2018-Jun-17 05:00N 34°41' E 135°12'0 0.0
2018-Jun-17 04:30N 34°41' E 135°12'0 0.0
2018-Jun-17 04:00N 34°41' E 135°12'0 0.0
2018-Jun-17 03:30N 34°41' E 135°12'0 0.0
2018-Jun-17 03:00N 34°41' E 135°12'0 0.0
2018-Jun-17 02:30N 34°41' E 135°12'0 0.0
2018-Jun-17 02:00N 34°41' E 135°12'0 0.0
2018-Jun-17 01:31N 34°41' E 135°12'0 0.0
2018-Jun-17 00:59N 34°41' E 135°12'0 0.0
2018-Jun-17 00:30N 34°41' E 135°12'0 0.0
2018-Jun-17 00:01N 34°41' E 135°12'0 0.0
2018-Jun-16 23:30N 34°41' E 135°12'0 0.0
2018-Jun-16 23:00N 34°41' E 135°12'1 1.6
2018-Jun-16 22:30N 34°40' E 135°12'917.9
2018-Jun-16 22:00N 34°31' E 135°10'1121.6
2018-Jun-16 21:30N 34°22' E 135°02'1021.0
2018-Jun-16 21:00N 34°13' E 134°58'1122.3
2018-Jun-16 20:30N 34°01' E 134°58'1122.1
2018-Jun-16 20:00N 33°51' E 134°54'1522.3
2018-Jun-16 19:21N 33°39' E 134°44'1 0.0
2018-Jun-15 13:43N 33°39' E 134°43'1020.3
2018-Jun-15 13:12N 33°47' E 134°51'519.7
2018-Jun-15 12:58N 33°51' E 134°53'1020.7
2018-Jun-15 12:31N 34°01' E 134°54'1020.8
2018-Jun-15 12:00N 34°11' E 134°56'1019.1
2018-Jun-15 11:31N 34°20' E 134°59'1020.9
2018-Jun-15 11:01N 34°29' E 135°06'1020.3
2018-Jun-15 10:31N 34°38' E 135°11'3 6.0
2018-Jun-15 10:00N 34°41' E 135°12'0 0.0
2018-Jun-15 09:30N 34°41' E 135°12'0 0.0
2018-Jun-15 09:00N 34°41' E 135°12'0 0.0
2018-Jun-15 08:30N 34°41' E 135°12'0 0.0
2018-Jun-15 07:59N 34°41' E 135°12'0 0.0
2018-Jun-15 07:30N 34°41' E 135°12'0 0.0
2018-Jun-15 07:00N 34°41' E 135°12'0 0.0
2018-Jun-15 06:30N 34°41' E 135°12'0 0.0
2018-Jun-15 06:00N 34°41' E 135°12'0 0.0
2018-Jun-15 05:30N 34°41' E 135°12'0 0.0
2018-Jun-15 04:58N 34°41' E 135°12'0 0.0
2018-Jun-15 04:29N 34°41' E 135°12'0 0.0
2018-Jun-15 04:00N 34°41' E 135°12'0 0.0
2018-Jun-15 03:30N 34°41' E 135°12'0 0.0
2018-Jun-15 03:00N 34°41' E 135°12'0 0.0
2018-Jun-15 02:30N 34°41' E 135°12'0 0.0
2018-Jun-15 02:00N 34°41' E 135°12'0 0.0
2018-Jun-15 01:30N 34°41' E 135°12'0 0.0
2018-Jun-15 01:00N 34°41' E 135°12'0 0.0
2018-Jun-15 00:30N 34°41' E 135°12'0 0.0
2018-Jun-15 00:00N 34°41' E 135°12'0 0.0
2018-Jun-14 23:30N 34°41' E 135°12'0 0.0
2018-Jun-14 23:00N 34°41' E 135°12'0 0.1
2018-Jun-14 22:30N 34°41' E 135°12'511.0
2018-Jun-14 22:01N 34°35' E 135°13'1121.5
2018-Jun-14 21:30N 34°27' E 135°06'1122.0
2018-Jun-14 21:00N 34°17' E 134°59'1122.0
2018-Jun-14 20:30N 34°06' E 134°58'1122.5
2018-Jun-14 20:00N 33°55' E 134°55'1721.8
2018-Jun-14 19:13N 33°40' E 134°45'3 0.1
2018-Jun-13 13:46N 33°38' E 134°42'1321.0
2018-Jun-13 13:10N 33°48' E 134°51'420.8
2018-Jun-13 12:59N 33°52' E 134°52'1021.0
2018-Jun-13 12:31N 34°02' E 134°54'1121.1
2018-Jun-13 12:00N 34°12' E 134°57'816.3
2018-Jun-13 11:31N 34°20' E 134°59'918.7
2018-Jun-13 11:00N 34°29' E 135°03'1020.7
2018-Jun-13 10:30N 34°38' E 135°10'4 7.3
2018-Jun-13 10:00N 34°41' E 135°12'0 0.0
2018-Jun-13 09:30N 34°41' E 135°12'0 0.0
2018-Jun-13 09:00N 34°41' E 135°12'0 0.0
2018-Jun-13 08:30N 34°41' E 135°12'0 0.0
2018-Jun-13 08:00N 34°41' E 135°12'0 0.0
2018-Jun-13 07:30N 34°41' E 135°12'0 0.0
2018-Jun-13 07:00N 34°41' E 135°12'0 0.0
2018-Jun-13 06:30N 34°41' E 135°12'0 0.0
2018-Jun-13 06:00N 34°41' E 135°12'0 0.0
2018-Jun-13 05:30N 34°41' E 135°12'0 0.0
2018-Jun-13 05:00N 34°41' E 135°12'0 0.0
2018-Jun-13 04:30N 34°41' E 135°12'0 0.0
2018-Jun-13 04:00N 34°41' E 135°12'0 0.0
2018-Jun-13 03:30N 34°41' E 135°12'0 0.0
2018-Jun-13 03:00N 34°41' E 135°12'0 0.0
2018-Jun-13 02:30N 34°41' E 135°12'0 0.0
2018-Jun-13 02:00N 34°41' E 135°12'0 0.0
2018-Jun-13 01:30N 34°41' E 135°12'0 0.0
2018-Jun-13 01:00N 34°41' E 135°12'0 0.0
2018-Jun-13 00:30N 34°41' E 135°12'0 0.0
2018-Jun-13 00:00N 34°41' E 135°12'0 0.0
2018-Jun-12 23:30N 34°41' E 135°12'0 0.0
2018-Jun-12 23:00N 34°41' E 135°12'0 0.0
2018-Jun-12 22:30N 34°41' E 135°12'3 6.9
2018-Jun-12 22:00N 34°38' E 135°11'1121.6
2018-Jun-12 21:30N 34°28' E 135°06'1122.9
2018-Jun-12 21:01N 34°18' E 134°60'1122.1
2018-Jun-12 20:31N 34°07' E 134°58'1122.3
2018-Jun-12 20:00N 33°56' E 134°55'1121.9
2018-Jun-12 19:29N 33°45' E 134°50'8 0.3
2018-Jun-11 13:34N 33°40' E 134°43'120.9
2018-Jun-11 13:30N 33°40' E 134°44'1020.6
2018-Jun-11 13:00N 33°49' E 134°52'1020.5
2018-Jun-11 12:30N 33°58' E 134°56'1019.7
2018-Jun-11 12:00N 34°08' E 134°57'1121.0
2018-Jun-11 11:30N 34°18' E 134°58'1121.2
2018-Jun-11 11:00N 34°28' E 135°03'1121.5
2018-Jun-11 10:30N 34°37' E 135°10'4 8.4
2018-Jun-11 10:00N 34°41' E 135°12'0 0.0
2018-Jun-11 09:30N 34°41' E 135°12'0 0.0
2018-Jun-11 08:59N 34°41' E 135°12'0 0.0
2018-Jun-11 08:30N 34°41' E 135°12'0 0.0
2018-Jun-11 08:00N 34°41' E 135°12'0 0.0
2018-Jun-11 07:30N 34°41' E 135°12'0 0.0
2018-Jun-11 07:00N 34°41' E 135°12'0 0.0
2018-Jun-11 06:30N 34°41' E 135°12'0 0.0
2018-Jun-11 06:00N 34°41' E 135°12'0 0.0
2018-Jun-11 05:29N 34°41' E 135°12'0 0.0
2018-Jun-11 05:00N 34°41' E 135°12'0 0.0
2018-Jun-11 04:30N 34°41' E 135°12'0 0.0
2018-Jun-11 04:00N 34°41' E 135°12'0 0.0
2018-Jun-11 03:30N 34°41' E 135°12'0 0.0
2018-Jun-11 03:00N 34°41' E 135°12'0 0.0
2018-Jun-11 02:30N 34°41' E 135°12'0 0.0
2018-Jun-11 02:00N 34°41' E 135°12'0 0.0
2018-Jun-11 01:30N 34°41' E 135°12'0 0.0
2018-Jun-11 01:00N 34°41' E 135°12'0 0.0
2018-Jun-11 00:30N 34°41' E 135°12'0 0.0
2018-Jun-11 00:00N 34°41' E 135°12'0 0.0
2018-Jun-10 23:30N 34°41' E 135°12'0 0.0
2018-Jun-10 23:00N 34°41' E 135°12'2 3.0
2018-Jun-10 22:30N 34°39' E 135°11'918.8
2018-Jun-10 22:00N 34°30' E 135°10'1020.8
2018-Jun-10 21:31N 34°22' E 135°02'1223.0
2018-Jun-10 21:01N 34°11' E 134°58'1122.9
2018-Jun-10 20:31N 34°00' E 134°56'1222.7
2018-Jun-10 19:59N 33°49' E 134°52'1122.2
2018-Jun-10 19:28N 33°39' E 134°44'2 0.1
2018-Jun-09 13:30N 33°38' E 134°42'1120.6
2018-Jun-09 12:58N 33°47' E 134°50'920.5
2018-Jun-09 12:30N 33°57' E 134°52'1121.4
2018-Jun-09 12:00N 34°07' E 134°56'1121.6
2018-Jun-09 11:31N 34°17' E 134°58'1122.1
2018-Jun-09 11:00N 34°28' E 135°03'1121.6
2018-Jun-09 10:30N 34°37' E 135°10'4 8.3
2018-Jun-09 10:00N 34°41' E 135°12'0 0.0
2018-Jun-09 09:30N 34°41' E 135°12'0 0.0
2018-Jun-09 09:00N 34°41' E 135°12'0 0.0
2018-Jun-09 08:30N 34°41' E 135°12'0 0.0
2018-Jun-09 08:00N 34°41' E 135°12'0 0.0
2018-Jun-09 07:30N 34°41' E 135°12'0 0.0
2018-Jun-09 07:00N 34°41' E 135°12'0 0.0
2018-Jun-09 06:30N 34°41' E 135°12'0 0.0
2018-Jun-09 06:00N 34°41' E 135°12'0 0.0
2018-Jun-09 05:30N 34°41' E 135°12'0 0.0
2018-Jun-09 05:00N 34°41' E 135°12'0 0.0
2018-Jun-09 04:30N 34°41' E 135°12'  

Dump ship's entire track history